Time;durP1;ratioP1;P1;durP2;ratioP2;P2;SDS_P1;SDS_P2;PMS_P1;PMS_P2;Temp;Humidity;BMP_temperature;BMP_pressure;BME280_temperature;BME280_humidity;BME280_pressure;Samples;Min_cycle;Max_cycle;Signal;HPM_P1;HPM_P2
2021/12/20 00:00:08;;;;;;;;;;;;;;;5.06;0.00;100150.41;4922040;28;19986;-77
2021/12/20 00:02:39;;;;;;;;;;;;;;;5.02;0.00;100155.50;4938506;28;19918;-77
2021/12/20 00:05:08;;;;;;;;;;;;;;;4.99;0.00;100147.78;4912041;28;19919;-77
2021/12/20 00:07:34;;;;;;;;;;;;;;;5.16;0.00;100136.88;4921387;28;19922;-77
2021/12/20 00:09:59;;;;;;;;;;;;;;;5.15;0.00;100135.16;4920153;28;21037;-77
2021/12/20 00:12:25;;;;;;;;;;;;;;;4.90;0.00;100136.66;4911851;28;19923;-77
2021/12/20 00:14:50;;;;;;;;;;;;;;;4.77;0.00;100128.88;4934178;28;19914;-77
2021/12/20 00:17:16;;;;;;;;;;;;;;;4.80;0.00;100130.59;4934879;28;19921;-77
2021/12/20 00:19:41;;;;;;;;;;;;;;;4.89;0.00;100133.25;4979121;28;19918;-77
2021/12/20 00:22:06;;;;;;;;;;;;;;;4.86;0.00;100128.13;4984289;28;20016;-77
2021/12/20 00:24:32;;;;;;;;;;;;;;;4.90;0.00;100122.19;4983243;28;19918;-77
2021/12/20 00:26:57;;;;;;;;;;;;;;;4.86;0.00;100128.13;4983002;28;19921;-76
2021/12/20 00:29:23;;;;;;;;;;;;;;;4.77;0.00;100122.94;4952894;28;19922;-77
2021/12/20 00:31:48;;;;;;;;;;;;;;;4.78;0.00;100119.53;4981190;28;19922;-77
2021/12/20 00:34:13;;;;;;;;;;;;;;;4.68;0.00;100123.69;4965623;28;19965;-77
2021/12/20 00:36:39;;;;;;;;;;;;;;;4.64;0.00;100116.84;4982794;28;19926;-77
2021/12/20 00:41:48;;;;;;;;;;;;;;;4.66;0.00;100119.41;4985740;28;19969;-76
2021/12/20 00:44:14;;;;;;;;;;;;;;;4.73;0.00;100119.47;4985733;28;19926;-73
2021/12/20 00:46:39;;;;;;;;;;;;;;;4.75;0.00;100122.91;4970609;28;19949;-74
2021/12/20 00:49:05;;;;;;;;;;;;;;;4.83;0.00;100125.53;4942378;28;19932;-74
2021/12/20 00:51:30;;;;;;;;;;;;;;;4.88;0.00;100125.56;4985998;28;19980;-73
2021/12/20 00:53:55;;;;;;;;;;;;;;;5.08;0.00;100125.75;4983226;28;19949;-74
2021/12/20 00:56:21;;;;;;;;;;;;;;;4.87;0.00;100127.25;4985302;28;19918;-74
2021/12/20 00:58:46;;;;;;;;;;;;;;;4.98;0.00;100125.66;4988270;28;20299;-74
2021/12/20 01:01:12;;;;;;;;;;;;;;;5.08;0.00;100124.03;4984528;28;19976;-74
2021/12/20 01:03:37;;;;;;;;;;;;;;;5.19;0.00;100131.78;4967095;28;19922;-74
2021/12/20 01:06:04;;;;;;;;;;;;;;;5.20;0.00;100120.72;4958013;28;20029;-74
2021/12/20 01:08:34;;;;;;;;;;;;;;;5.15;0.00;100122.41;4986202;28;19928;-74
2021/12/20 01:11:01;;;;;;;;;;;;;;;5.01;0.00;100123.13;4983599;28;19924;-74
2021/12/20 01:13:29;;;;;;;;;;;;;;;4.86;0.00;100125.56;4984477;28;20566;-74
2021/12/20 01:15:57;;;;;;;;;;;;;;;4.96;0.00;100129.91;4958626;28;20008;-74
2021/12/20 01:18:23;;;;;;;;;;;;;;;4.85;0.00;100125.53;4982182;28;20029;-77
2021/12/20 01:20:48;;;;;;;;;;;;;;;4.94;0.00;100123.91;4979602;28;20020;-77
2021/12/20 01:23:14;;;;;;;;;;;;;;;4.82;0.00;100128.94;4963923;28;19926;-77
2021/12/20 01:25:40;;;;;;;;;;;;;;;4.86;0.00;100133.22;4979438;28;19925;-77
2021/12/20 01:28:05;;;;;;;;;;;;;;;4.97;0.00;100140.97;4980293;28;19980;-77
2021/12/20 01:30:31;;;;;;;;;;;;;;;4.95;0.00;100128.19;4980490;28;19918;-77
2021/12/20 01:32:56;;;;;;;;;;;;;;;4.97;0.00;100131.63;4978697;28;20279;-77
2021/12/20 01:35:23;;;;;;;;;;;;;;;4.97;0.00;100130.75;4979965;28;19973;-77
2021/12/20 01:37:48;;;;;;;;;;;;;;;4.88;0.00;100138.31;4964542;28;19929;-77
2021/12/20 01:40:14;;;;;;;;;;;;;;;4.86;0.00;100138.31;4982133;28;19944;-77
2021/12/20 01:42:40;;;;;;;;;;;;;;;5.42;0.00;100145.59;4980576;28;19921;-77
2021/12/20 01:45:09;;;;;;;;;;;;;;;5.23;0.00;100133.53;4983904;28;19914;-77
2021/12/20 01:47:37;;;;;;;;;;;;;;;4.92;0.00;100138.38;4981776;28;19918;-77
2021/12/20 01:50:16;;;;;;;;;;;;;;;4.79;0.00;100134.00;4982308;28;20477;-77
2021/12/20 01:52:43;;;;;;;;;;;;;;;4.88;0.00;100130.66;4981782;28;19957;-77
2021/12/20 01:55:09;;;;;;;;;;;;;;;4.80;0.00;100139.09;4982155;28;20294;-77
2021/12/20 01:57:35;;;;;;;;;;;;;;;4.75;0.00;100129.72;4980249;28;19925;-76
2021/12/20 02:00:01;;;;;;;;;;;;;;;4.94;0.00;100131.59;4982125;28;20033;-77
2021/12/20 02:02:26;;;;;;;;;;;;;;;5.22;0.00;100134.38;4981994;28;20365;-77
2021/12/20 02:05:00;;;;;;;;;;;;;;;5.01;0.00;100123.13;4950229;28;20062;-77
2021/12/20 02:07:50;;;;;;;;;;;;;;;4.92;0.00;100115.38;4964085;28;20401;-77
2021/12/20 02:10:16;;;;;;;;;;;;;;;5.00;0.00;100111.22;4980335;28;19922;-77
2021/12/20 02:12:41;;;;;;;;;;;;;;;5.16;0.00;100121.56;4997423;28;19928;-77
2021/12/20 02:15:07;;;;;;;;;;;;;;;5.10;0.00;100107.03;4982499;28;20268;-77
2021/12/20 02:17:32;;;;;;;;;;;;;;;4.89;0.00;100110.28;4954047;28;20007;-77
2021/12/20 02:19:59;;;;;;;;;;;;;;;4.84;0.00;100111.09;4957789;28;20283;-77
2021/12/20 02:22:24;;;;;;;;;;;;;;;4.88;0.00;100121.34;4984747;28;20473;-76
2021/12/20 02:24:50;;;;;;;;;;;;;;;5.01;0.00;100125.69;5001902;28;20008;-77
2021/12/20 02:27:16;;;;;;;;;;;;;;;5.02;0.00;100124.84;4983651;28;19921;-77
2021/12/20 02:29:59;;;;;;;;;;;;;;;4.92;0.00;100117.09;4983222;28;19921;-77
2021/12/20 02:37:54;;;;;;;;;;;;;;;4.71;0.00;100127.97;4987908;28;19933;-77
2021/12/20 02:40:21;;;;;;;;;;;;;;;4.95;0.00;100123.09;4986860;28;19940;-77
2021/12/20 02:42:48;;;;;;;;;;;;;;;5.12;0.00;100119.81;5004410;28;19932;-77
2021/12/20 02:45:15;;;;;;;;;;;;;;;5.01;0.00;100110.38;4984870;28;19925;-77
2021/12/20 02:47:42;;;;;;;;;;;;;;;5.17;0.00;100105.38;4986394;28;20401;-77
2021/12/20 02:50:08;;;;;;;;;;;;;;;5.56;0.00;100114.16;5005264;28;20274;-77
2021/12/20 02:52:33;;;;;;;;;;;;;;;5.83;0.00;100109.22;4987317;28;19917;-77
2021/12/20 02:54:59;;;;;;;;;;;;;;;6.10;0.00;100110.22;4973910;28;20277;-77
2021/12/20 02:57:24;;;;;;;;;;;;;;;5.54;2.33;100093.75;4986527;28;19991;-77
2021/12/20 02:59:50;;;;;;;;;;;;;;;5.87;5.59;100087.94;4985363;28;19944;-77
2021/12/20 03:02:16;;;;;;;;;;;;;;;5.02;11.82;100084.00;4987546;28;19988;-77
2021/12/20 03:04:41;;;;;;;;;;;;;;;4.92;11.51;100089.88;4989328;28;19921;-77
2021/12/20 03:07:08;;;;;;;;;;;;;;;5.06;9.71;100084.03;5002467;28;20023;-77
2021/12/20 03:09:37;;;;;;;;;;;;;;;5.09;11.70;100094.28;4984802;28;20259;-77
2021/12/20 03:12:03;;;;;;;;;;;;;;;5.49;11.87;100085.16;4984743;28;20402;-77
2021/12/20 03:14:33;;;;;;;;;;;;;;;5.15;17.27;100084.09;4984718;28;19929;-77
2021/12/20 03:16:59;;;;;;;;;;;;;;;5.13;18.41;100089.22;5002025;28;20017;-77
2021/12/20 03:19:24;;;;;;;;;;;;;;;5.41;18.52;100082.59;4985713;28;19921;-77
2021/12/20 03:21:50;;;;;;;;;;;;;;;5.22;19.82;100079.06;4968034;28;19945;-77
2021/12/20 03:24:15;;;;;;;;;;;;;;;5.62;21.16;100083.56;4968679;28;19922;-77
2021/12/20 03:26:41;;;;;;;;;;;;;;;5.19;24.91;100075.63;5003249;28;19918;-77
2021/12/20 03:29:06;;;;;;;;;;;;;;;4.68;26.44;100077.75;5001412;28;19925;-77
2021/12/20 03:31:32;;;;;;;;;;;;;;;4.86;24.81;100077.06;5001766;28;19936;-77
2021/12/20 03:33:58;;;;;;;;;;;;;;;4.73;21.54;100080.34;4968983;28;19956;-77
2021/12/20 03:36:23;;;;;;;;;;;;;;;5.08;18.46;100077.22;4984780;28;19928;-77
2021/12/20 03:38:49;;;;;;;;;;;;;;;5.24;20.27;100079.06;4967323;28;19925;-77
2021/12/20 03:41:14;;;;;;;;;;;;;;;5.32;24.01;100081.69;4972144;28;19973;-77
2021/12/20 03:43:40;;;;;;;;;;;;;;;5.17;27.66;100077.31;4985296;28;19921;-77
2021/12/20 03:46:06;;;;;;;;;;;;;;;5.28;28.86;100080.78;5002147;28;19925;-77
2021/12/20 03:48:31;;;;;;;;;;;;;;;5.48;29.81;100082.63;4968218;28;19921;-77
2021/12/20 03:50:57;;;;;;;;;;;;;;;5.09;38.27;100071.31;4955232;28;21090;-77
2021/12/20 03:53:22;;;;;;;;;;;;;;;4.69;37.63;100064.16;4989177;28;19952;-77
2021/12/20 03:55:48;;;;;;;;;;;;;;;5.08;37.02;100062.75;4971003;28;20552;-77
2021/12/20 03:58:13;;;;;;;;;;;;;;;5.45;37.78;100071.53;4973121;28;19925;-77
2021/12/20 04:00:39;;;;;;;;;;;;;;;5.53;41.09;100070.72;4988584;28;19918;-77
2021/12/20 04:03:09;;;;;;;;;;;;;;;4.87;50.91;100058.34;4987525;28;19941;-76
2021/12/20 04:05:35;;;;;;;;;;;;;;;5.57;46.39;100060.53;4971968;28;19940;-77
2021/12/20 04:08:01;;;;;;;;;;;;;;;4.90;55.31;100058.38;4984487;28;19925;-77
2021/12/20 04:10:26;;;;;;;;;;;;;;;5.17;52.94;100056.88;5001783;28;20001;-77
2021/12/20 04:12:52;;;;;;;;;;;;;;;5.43;54.76;100060.47;5004365;28;19928;-77
2021/12/20 04:15:17;;;;;;;;;;;;;;;4.64;62.59;100054.75;5004848;28;19963;-77
2021/12/20 04:17:42;;;;;;;;;;;;;;;5.00;58.53;100049.94;4986032;28;19936;-77
2021/12/20 04:20:08;;;;;;;;;;;;;;;5.28;58.89;100070.56;4983127;28;20437;-77
2021/12/20 04:22:34;;;;;;;;;;;;;;;5.07;65.33;100060.22;4983598;28;19924;-76
2021/12/20 04:24:59;;;;;;;;;;;;;;;4.84;66.39;100068.53;4981904;28;19922;-77
2021/12/20 04:27:24;;;;;;;;;;;;;;;4.95;63.94;100071.16;4981023;28;20501;-77
2021/12/20 04:29:50;;;;;;;;;;;;;;;5.15;66.86;100081.53;4983218;28;20027;-77
2021/12/20 04:32:15;;;;;;;;;;;;;;;4.72;70.03;100073.53;4980452;28;19922;-76
2021/12/20 04:34:41;;;;;;;;;;;;;;;4.85;69.35;100072.78;4980244;28;19922;-77
2021/12/20 04:37:08;;;;;;;;;;;;;;;5.18;68.51;100073.91;4982558;28;20710;-77
2021/12/20 04:39:33;;;;;;;;;;;;;;;4.79;71.51;100076.16;4982645;28;19929;-77
2021/12/20 04:42:00;;;;;;;;;;;;;;;5.38;69.50;100082.56;4964881;28;19922;-77
2021/12/20 04:44:26;;;;;;;;;;;;;;;5.15;76.18;100068.78;4982385;28;20013;-77
2021/12/20 04:46:51;;;;;;;;;;;;;;;5.24;75.80;100073.94;4982965;28;19956;-77
2021/12/20 04:49:17;;;;;;;;;;;;;;;5.07;78.34;100070.44;4982783;28;19968;-77
2021/12/20 04:51:42;;;;;;;;;;;;;;;4.95;79.56;100066.94;4981357;28;19926;-76
2021/12/20 04:54:08;;;;;;;;;;;;;;;4.87;79.08;100077.91;4983474;28;20004;-76
2021/12/20 04:56:33;;;;;;;;;;;;;;;5.19;79.79;100075.63;4982471;28;20019;-77
2021/12/20 04:58:59;;;;;;;;;;;;;;;5.46;80.75;100080.06;4981267;28;19964;-76
2021/12/20 05:01:24;;;;;;;;;;;;;;;5.43;84.75;100074.94;4951956;28;19922;-76
2021/12/20 05:03:49;;;;;;;;;;;;;;;5.60;86.14;100078.44;4983111;28;20956;-76
2021/12/20 05:06:15;;;;;;;;;;;;;;;5.97;88.79;100077.78;4982806;28;19922;-77
2021/12/20 05:08:49;;;;;;;;;;;;;;;5.12;94.69;100061.94;4982933;28;20024;-77
2021/12/20 05:11:15;;;;;;;;;;;;;;;4.71;91.27;100071.81;4983461;28;19917;-77
2021/12/20 05:13:40;;;;;;;;;;;;;;;4.96;91.25;100072.91;4981395;28;19917;-77
2021/12/20 05:16:06;;;;;;;;;;;;;;;5.85;87.71;100076.84;4981318;28;19921;-77
2021/12/20 05:18:31;;;;;;;;;;;;;;;5.70;96.28;100074.22;4981378;28;19928;-77
2021/12/20 05:20:56;;;;;;;;;;;;;;;5.89;97.87;100069.22;4982777;28;19936;-76
2021/12/20 05:23:22;;;;;;;;;;;;;;;5.74;100.00;100065.72;4982717;28;19957;-76
2021/12/20 05:25:47;;;;;;;;;;;;;;;5.93;100.00;100060.69;4981696;28;19936;-76
2021/12/20 05:28:13;;;;;;;;;;;;;;;6.11;100.00;100060.78;4981371;28;19929;-75
2021/12/20 05:30:38;;;;;;;;;;;;;;;6.01;100.00;100059.91;4980717;28;19933;-76
2021/12/20 05:33:04;;;;;;;;;;;;;;;6.04;100.00;100067.59;4979880;28;20442;-78
2021/12/20 05:35:29;;;;;;;;;;;;;;;5.78;100.00;100067.44;4979578;28;19922;-78
2021/12/20 05:37:57;;;;;;;;;;;;;;;5.57;100.00;100064.78;4981010;28;19953;-77
2021/12/20 05:40:23;;;;;;;;;;;;;;;5.67;100.00;100071.66;4978191;28;19933;-77
2021/12/20 05:42:48;;;;;;;;;;;;;;;5.73;100.00;100074.25;4979306;28;19926;-77
2021/12/20 05:45:14;;;;;;;;;;;;;;;5.44;100.00;100069.81;4964377;28;19920;-78
2021/12/20 05:47:39;;;;;;;;;;;;;;;5.22;100.00;100075.63;4978991;28;19921;-77
2021/12/20 05:50:07;;;;;;;;;;;;;;;5.18;100.00;100069.66;4979241;28;19933;-78
2021/12/20 05:52:32;;;;;;;;;;;;;;;5.37;100.00;100090.22;4979685;28;19940;-77
2021/12/20 05:54:58;;;;;;;;;;;;;;;5.24;100.00;100081.59;4976961;28;19928;-77
2021/12/20 05:57:23;;;;;;;;;;;;;;;4.84;100.00;100088.97;4981058;28;20475;-77
2021/12/20 05:59:48;;;;;;;;;;;;;;;4.93;100.00;100094.16;4982243;28;19914;-77
2021/12/20 06:02:14;;;;;;;;;;;;;;;4.86;100.00;100092.38;4981298;28;20028;-78
2021/12/20 06:04:39;;;;;;;;;;;;;;;4.68;100.00;100102.44;4980075;28;19924;-78
2021/12/20 06:07:05;;;;;;;;;;;;;;;4.56;100.00;100104.03;4982129;28;20036;-78
2021/12/20 06:09:31;;;;;;;;;;;;;;;4.79;100.00;100116.16;4949436;28;19921;-78
2021/12/20 06:11:59;;;;;;;;;;;;;;;4.82;100.00;100105.97;4955544;28;19937;-78
2021/12/20 06:14:27;;;;;;;;;;;;;;;4.90;100.00;100108.56;4979525;28;19918;-78
2021/12/20 06:16:55;;;;;;;;;;;;;;;4.85;100.00;100105.97;4979435;28;19921;-78
2021/12/20 06:19:20;;;;;;;;;;;;;;;4.72;100.00;100105.03;4981427;28;19925;-78
2021/12/20 06:21:46;;;;;;;;;;;;;;;4.64;100.00;100110.88;4981472;28;19926;-77
2021/12/20 06:24:11;;;;;;;;;;;;;;;4.72;100.00;100111.81;4981064;28;19960;-78
2021/12/20 06:26:36;;;;;;;;;;;;;;;4.32;100.00;100112.25;4948248;28;19918;-78
2021/12/20 06:29:02;;;;;;;;;;;;;;;4.24;100.00;100118.09;4980782;28;20008;-77
2021/12/20 06:31:27;;;;;;;;;;;;;;;3.98;100.00;100119.50;4981256;28;19922;-77
2021/12/20 06:33:52;;;;;;;;;;;;;;;4.16;100.00;100129.06;4980392;28;19922;-77
2021/12/20 06:36:19;;;;;;;;;;;;;;;4.14;100.00;100124.78;4979412;28;19932;-78
2021/12/20 06:38:46;;;;;;;;;;;;;;;4.33;100.00;100136.06;4964054;28;19922;-77
2021/12/20 06:41:12;;;;;;;;;;;;;;;4.31;100.00;100135.16;4978955;28;19918;-78
2021/12/20 06:43:38;;;;;;;;;;;;;;;4.25;100.00;100128.31;4980721;28;19965;-78
2021/12/20 06:46:03;;;;;;;;;;;;;;;3.96;100.00;100130.50;4980109;28;20347;-77
2021/12/20 06:48:28;;;;;;;;;;;;;;;4.13;100.00;100139.25;4980920;28;20294;-78
2021/12/20 06:50:54;;;;;;;;;;;;;;;4.38;100.00;100136.97;4980489;28;20279;-77
2021/12/20 06:53:19;;;;;;;;;;;;;;;4.55;100.00;100135.47;4964178;28;20339;-78
2021/12/20 06:55:44;;;;;;;;;;;;;;;4.42;100.00;100137.84;4980618;28;19921;-78
2021/12/20 06:58:10;;;;;;;;;;;;;;;4.25;100.00;100132.56;4979603;28;19922;-78
2021/12/20 07:00:35;;;;;;;;;;;;;;;4.35;100.00;100127.56;4981573;28;19944;-78
2021/12/20 07:03:01;;;;;;;;;;;;;;;4.29;100.00;100131.75;4981790;28;20619;-78
2021/12/20 07:05:26;;;;;;;;;;;;;;;4.43;100.00;100126.84;4950282;28;19918;-78
2021/12/20 07:07:52;;;;;;;;;;;;;;;4.38;100.00;100132.72;4980824;28;19949;-78
2021/12/20 07:10:17;;;;;;;;;;;;;;;4.49;100.00;100127.72;4981849;28;19953;-78
2021/12/20 07:12:43;;;;;;;;;;;;;;;4.50;100.00;100128.59;4963743;28;19954;-78
2021/12/20 07:15:12;;;;;;;;;;;;;;;4.60;100.00;100126.16;4982718;28;19922;-78
2021/12/20 07:17:38;;;;;;;;;;;;;;;4.47;100.00;100123.44;4981678;28;19977;-78
2021/12/20 07:20:05;;;;;;;;;;;;;;;4.34;100.00;100119.94;4979923;28;19944;-78
2021/12/20 07:22:30;;;;;;;;;;;;;;;3.87;100.00;100133.78;4981021;28;19921;-78
2021/12/20 07:24:55;;;;;;;;;;;;;;;3.80;100.00;100138.78;4982238;28;19925;-78
2021/12/20 07:27:21;;;;;;;;;;;;;;;3.68;100.00;100140.31;4984065;28;19936;-78
2021/12/20 07:29:46;;;;;;;;;;;;;;;3.64;100.00;100151.31;4985005;28;19921;-79
2021/12/20 07:32:11;;;;;;;;;;;;;;;3.57;100.00;100169.88;4984825;28;19932;-78
2021/12/20 07:34:37;;;;;;;;;;;;;;;3.62;100.00;100164.84;4958599;28;19914;-78
2021/12/20 07:37:03;;;;;;;;;;;;;;;3.62;100.00;100181.00;4953952;28;19976;-78
2021/12/20 07:39:29;;;;;;;;;;;;;;;3.43;100.00;100186.66;4984280;28;19926;-78
2021/12/20 07:41:54;;;;;;;;;;;;;;;3.51;100.00;100187.59;4983827;28;20008;-80
2021/12/20 07:44:20;;;;;;;;;;;;;;;3.73;100.00;100193.91;4982655;28;19952;-79
2021/12/20 07:46:45;;;;;;;;;;;;;;;3.68;100.00;100201.47;4983342;28;19918;-78
2021/12/20 07:49:11;;;;;;;;;;;;;;;3.78;100.00;100200.75;4966981;28;19996;-77
2021/12/20 07:51:36;;;;;;;;;;;;;;;3.94;100.00;100199.28;4983354;28;19925;-78
2021/12/20 07:54:01;;;;;;;;;;;;;;;3.80;100.00;100208.44;4986790;28;19934;-77
2021/12/20 07:56:27;;;;;;;;;;;;;;;3.87;100.00;100214.47;4983669;28;19918;-78
2021/12/20 07:58:52;;;;;;;;;;;;;;;3.94;100.00;100217.13;4943735;28;19922;-78
2021/12/20 08:01:18;;;;;;;;;;;;;;;3.83;100.00;100221.25;4945378;28;20424;-78
2021/12/20 08:03:43;;;;;;;;;;;;;;;4.08;100.00;100217.34;4985509;28;20379;-78
2021/12/20 08:06:09;;;;;;;;;;;;;;;4.44;100.00;100211.00;4985212;28;20283;-78
2021/12/20 08:08:34;;;;;;;;;;;;;;;4.31;100.00;100193.81;4959366;28;20171;-77
2021/12/20 08:11:00;;;;;;;;;;;;;;;4.42;100.00;100192.25;4967738;28;20545;-78
2021/12/20 08:13:25;;;;;;;;;;;;;;;4.29;100.00;100191.28;4985918;28;19922;-78
2021/12/20 08:15:50;;;;;;;;;;;;;;;4.31;100.00;100174.31;4986193;28;19941;-78
2021/12/20 08:18:16;;;;;;;;;;;;;;;3.95;100.00;100174.69;4957648;28;19940;-77
2021/12/20 08:20:41;;;;;;;;;;;;;;;3.58;100.00;100184.34;4983833;28;19922;-77
2021/12/20 08:23:06;;;;;;;;;;;;;;;3.68;100.00;100191.28;4985357;28;20063;-78
2021/12/20 08:25:32;;;;;;;;;;;;;;;3.53;100.00;100198.69;4955189;28;20486;-77
2021/12/20 08:27:57;;;;;;;;;;;;;;;3.85;100.00;100199.16;4985061;28;19929;-78
2021/12/20 08:30:22;;;;;;;;;;;;;;;4.42;100.00;100211.81;4953450;28;19925;-78
2021/12/20 08:32:48;;;;;;;;;;;;;;;4.41;100.00;100205.88;4984315;28;19926;-77
2021/12/20 08:35:14;;;;;;;;;;;;;;;4.48;100.00;100202.56;4982817;28;20329;-78
2021/12/20 08:37:39;;;;;;;;;;;;;;;4.43;100.00;100211.00;4981963;28;19925;-77
2021/12/20 08:40:06;;;;;;;;;;;;;;;4.36;100.00;100208.38;4985772;28;19968;-78
2021/12/20 08:42:31;;;;;;;;;;;;;;;3.91;100.00;100204.34;4983832;28;19960;-77
2021/12/20 08:44:56;;;;;;;;;;;;;;;3.52;100.00;100222.44;4958604;28;20442;-77
2021/12/20 08:47:22;;;;;;;;;;;;;;;3.82;100.00;100239.03;4984695;28;20016;-77
2021/12/20 08:49:47;;;;;;;;;;;;;;;3.79;100.00;100255.16;4984260;28;21205;-78
2021/12/20 08:52:13;;;;;;;;;;;;;;;3.93;100.00;100260.44;4956508;28;20371;-77
2021/12/20 08:54:38;;;;;;;;;;;;;;;4.18;99.91;100275.28;4985077;28;20009;-77
2021/12/20 08:57:05;;;;;;;;;;;;;;;4.32;99.00;100272.91;4985476;28;19918;-77
2021/12/20 08:59:31;;;;;;;;;;;;;;;4.13;100.00;100270.94;4958975;28;19918;-77
2021/12/20 09:01:57;;;;;;;;;;;;;;;4.26;99.59;100277.06;4944630;28;19921;-77
2021/12/20 09:04:23;;;;;;;;;;;;;;;4.59;96.80;100282.63;4965703;28;20403;-77
2021/12/20 09:06:49;;;;;;;;;;;;;;;4.18;100.00;100293.13;4985306;28;19922;-77
2021/12/20 09:09:15;;;;;;;;;;;;;;;3.77;100.00;100293.34;4985339;28;19976;-77
2021/12/20 09:11:41;;;;;;;;;;;;;;;4.23;96.55;100298.28;4958301;28;19917;-77
2021/12/20 09:14:06;;;;;;;;;;;;;;;3.89;98.44;100305.41;4969195;28;19925;-77
2021/12/20 09:16:32;;;;;;;;;;;;;;;3.39;97.04;100309.66;4957890;28;19925;-77
2021/12/20 09:18:57;;;;;;;;;;;;;;;3.29;93.48;100317.13;4985248;28;20315;-77
2021/12/20 09:21:23;;;;;;;;;;;;;;;2.88;91.04;100322.25;4984274;28;19922;-77
2021/12/20 09:23:48;;;;;;;;;;;;;;;2.97;86.03;100336.00;4982676;28;19945;-77
2021/12/20 09:26:13;;;;;;;;;;;;;;;3.20;81.41;100344.94;4984149;28;19944;-77
2021/12/20 09:28:39;;;;;;;;;;;;;;;3.00;80.92;100346.25;4984150;28;19925;-77
2021/12/20 09:31:05;;;;;;;;;;;;;;;3.19;77.14;100355.94;4981393;28;19922;-77
2021/12/20 09:33:31;;;;;;;;;;;;;;;3.15;75.04;100366.91;4966770;28;19928;-77
2021/12/20 09:35:56;;;;;;;;;;;;;;;3.11;75.12;100365.13;4957206;28;19997;-78
2021/12/20 09:38:21;;;;;;;;;;;;;;;3.33;74.24;100377.47;4982460;28;19945;-77
2021/12/20 09:41:13;;;;;;;;;;;;;;;3.08;72.05;100380.31;4956447;28;19918;-77
2021/12/20 09:43:44;;;;;;;;;;;;;;;3.31;69.56;100386.75;4961589;28;19921;-77
2021/12/20 09:46:10;;;;;;;;;;;;;;;3.34;71.14;100389.34;4982591;28;19924;-77
2021/12/20 09:48:35;;;;;;;;;;;;;;;3.59;71.72;100394.91;4983467;28;19914;-77
2021/12/20 09:51:01;;;;;;;;;;;;;;;3.64;73.19;100393.31;4956762;28;20334;-77
2021/12/20 09:53:27;;;;;;;;;;;;;;;3.67;74.88;100388.28;4983142;28;19925;-77
2021/12/20 09:55:52;;;;;;;;;;;;;;;3.74;75.15;100391.78;4983206;28;20027;-77
2021/12/20 09:58:18;;;;;;;;;;;;;;;3.88;75.13;100386.94;4984046;28;19922;-77
2021/12/20 10:00:44;;;;;;;;;;;;;;;3.92;77.29;100394.69;4982736;28;20323;-77
2021/12/20 10:03:09;;;;;;;;;;;;;;;3.97;77.88;100392.22;4957713;28;19917;-77
2021/12/20 10:05:35;;;;;;;;;;;;;;;3.83;79.79;100391.97;4957767;28;20155;-77
2021/12/20 10:08:09;;;;;;;;;;;;;;;4.36;77.90;100386.03;4953910;28;19918;-77
2021/12/20 10:10:42;;;;;;;;;;;;;;;3.98;83.15;100388.81;4984712;28;19917;-77
2021/12/20 10:13:07;;;;;;;;;;;;;;;3.83;83.59;100383.44;4984340;28;19965;-77
2021/12/20 10:15:37;;;;;;;;;;;;;;;4.04;79.36;100390.59;4983695;28;19972;-77
2021/12/20 10:18:03;;;;;;;;;;;;;;;4.01;82.18;100383.75;4956989;28;20010;-77
2021/12/20 10:20:29;;;;;;;;;;;;;;;4.18;80.88;100392.56;4983428;28;20840;-77
2021/12/20 10:23:07;;;;;;;;;;;;;;;4.01;83.63;100386.31;4988412;28;19983;-77
2021/12/20 10:25:32;;;;;;;;;;;;;;;4.61;79.39;100385.56;4982127;28;19973;-77
2021/12/20 10:28:06;;;;;;;;;;;;;;;4.36;83.84;100380.94;4980536;28;19976;-77
2021/12/20 10:30:33;;;;;;;;;;;;;;;5.15;80.98;100375.19;4982959;28;19917;-76
2021/12/20 10:32:58;;;;;;;;;;;;;;;5.11;86.44;100363.22;4972383;28;19917;-77
2021/12/20 10:35:27;;;;;;;;;;;;;;;5.02;89.11;100358.88;4967713;28;20238;-77
2021/12/20 10:37:53;;;;;;;;;;;;;;;4.95;90.40;100341.75;4956041;28;20306;-77
2021/12/20 10:40:19;;;;;;;;;;;;;;;4.73;92.14;100333.84;4985331;28;19983;-77
2021/12/20 10:42:44;;;;;;;;;;;;;;;5.23;90.31;100330.19;4979521;28;19929;-77
2021/12/20 10:45:14;;;;;;;;;;;;;;;5.66;90.18;100308.47;4985500;28;19968;-77
2021/12/20 10:47:39;;;;;;;;;;;;;;;5.49;95.25;100297.22;4984683;28;19971;-77
2021/12/20 10:50:24;;;;;;;;;;;;;;;5.82;96.07;100286.47;4984278;28;19926;-77
2021/12/20 10:52:49;;;;;;;;;;;;;;;5.51;100.00;100269.16;4972669;28;20827;-77
2021/12/20 10:55:34;;;;;;;;;;;;;;;5.51;100.00;100271.72;4971377;28;19968;-77
2021/12/20 10:58:19;;;;;;;;;;;;;;;6.12;100.00;100269.66;4985021;28;19992;-77
2021/12/20 11:00:45;;;;;;;;;;;;;;;5.73;100.00;100258.28;4984368;28;19913;-77
2021/12/20 11:03:28;;;;;;;;;;;;;;;5.57;100.00;100259.84;4957036;28;19920;-77
2021/12/20 11:11:27;;;;;;;;;;;;;;;6.21;100.00;100246.69;4964169;28;19928;-77
2021/12/20 11:13:52;;;;;;;;;;;;;;;6.52;100.00;100254.50;4966855;28;19918;-77
2021/12/20 11:16:31;;;;;;;;;;;;;;;6.29;100.00;100239.06;4985761;28;19917;-77
2021/12/20 11:19:17;;;;;;;;;;;;;;;6.49;100.00;100241.72;4965515;28;20072;-77
2021/12/20 11:21:48;;;;;;;;;;;;;;;5.96;100.00;100239.72;4980407;28;19933;-77
2021/12/20 11:24:16;;;;;;;;;;;;;;;6.23;100.00;100242.44;4984725;28;19924;-77
2021/12/20 11:26:41;;;;;;;;;;;;;;;6.73;100.00;100242.66;4984547;28;19988;-77
2021/12/20 11:29:07;;;;;;;;;;;;;;;6.37;100.00;100241.66;4985352;28;20000;-77
2021/12/20 11:31:33;;;;;;;;;;;;;;;6.19;100.00;100238.16;4958098;28;19985;-77
2021/12/20 11:33:59;;;;;;;;;;;;;;;6.83;100.00;100241.84;4985317;28;19921;-77
2021/12/20 11:36:25;;;;;;;;;;;;;;;6.85;100.00;100242.72;4958660;28;19998;-77
2021/12/20 11:38:50;;;;;;;;;;;;;;;6.51;100.00;100244.28;4986327;28;20409;-77
2021/12/20 11:41:16;;;;;;;;;;;;;;;6.21;100.00;100231.34;4956673;28;19918;-77
2021/12/20 11:43:41;;;;;;;;;;;;;;;6.70;100.00;100234.13;4985196;28;19924;-77
2021/12/20 11:46:07;;;;;;;;;;;;;;;6.07;100.00;100228.72;4955855;28;19918;-77
2021/12/20 11:48:32;;;;;;;;;;;;;;;6.40;100.00;100229.72;4984075;28;19968;-77
2021/12/20 11:50:58;;;;;;;;;;;;;;;6.55;100.00;100226.41;4984638;28;20334;-77
2021/12/20 11:53:24;;;;;;;;;;;;;;;6.76;100.00;100225.59;4959581;28;19984;-77
2021/12/20 11:55:50;;;;;;;;;;;;;;;6.43;100.00;100223.75;4984654;28;20021;-77
2021/12/20 11:58:24;;;;;;;;;;;;;;;6.08;100.00;100229.56;4984194;28;20397;-77
2021/12/20 12:00:53;;;;;;;;;;;;;;;6.56;100.00;100228.09;4962024;28;20897;-79
2021/12/20 12:03:18;;;;;;;;;;;;;;;6.73;100.00;100227.28;4984222;28;19968;-77
2021/12/20 12:05:48;;;;;;;;;;;;;;;6.57;100.00;100229.81;4984513;28;19921;-77
2021/12/20 12:08:22;;;;;;;;;;;;;;;6.69;100.00;100229.00;4956060;28;19980;-77
2021/12/20 12:10:48;;;;;;;;;;;;;;;6.65;100.00;100228.13;4982948;28;19976;-77
2021/12/20 12:13:17;;;;;;;;;;;;;;;6.69;100.00;100229.84;4981952;28;19953;-76
2021/12/20 12:16:29;;;;;;;;;;;;;;;7.29;100.00;100231.69;4954868;28;19924;-76
2021/12/20 12:18:56;;;;;;;;;;;;;;;6.01;100.00;100223.56;4976422;28;19946;-76
2021/12/20 12:21:39;;;;;;;;;;;;;;;5.47;100.00;100226.53;4999306;28;19963;-76
2021/12/20 12:24:13;;;;;;;;;;;;;;;6.44;100.00;100231.47;5005079;28;20005;-76
2021/12/20 12:26:38;;;;;;;;;;;;;;;6.88;100.00;100240.16;4986694;28;20039;-76
2021/12/20 12:29:04;;;;;;;;;;;;;;;6.86;100.00;100246.97;5004546;28;20011;-76
2021/12/20 12:31:48;;;;;;;;;;;;;;;6.03;100.00;100251.69;4974719;28;19920;-75
2021/12/20 12:34:13;;;;;;;;;;;;;;;4.39;100.00;100258.56;5003996;28;20375;-75
2021/12/20 12:36:41;;;;;;;;;;;;;;;3.85;87.30;100285.78;4961563;28;19921;-75
2021/12/20 12:39:10;;;;;;;;;;;;;;;3.55;74.05;100316.72;5002272;28;19929;-75
2021/12/20 12:41:43;;;;;;;;;;;;;;;3.52;65.30;100326.88;4985229;28;20425;-75
2021/12/20 12:44:19;;;;;;;;;;;;;;;4.03;57.23;100348.94;5004170;28;20022;-75
2021/12/20 12:46:46;;;;;;;;;;;;;;;4.39;54.13;100361.41;4985981;28;20071;-75
2021/12/20 12:49:23;;;;;;;;;;;;;;;4.43;56.05;100367.44;5003266;28;19913;-75
2021/12/20 12:51:58;;;;;;;;;;;;;;;4.82;52.09;100366.28;5004706;28;19931;-75
2021/12/20 12:54:33;;;;;;;;;;;;;;;4.17;55.82;100360.25;4986531;28;19913;-75
2021/12/20 12:57:07;;;;;;;;;;;;;;;4.12;53.88;100369.50;4978211;28;19928;-75